createdAt,value
2019-05-28T00:01:46.152Z,12.55
2019-05-28T00:04:23.056Z,13.95
2019-05-28T00:06:59.818Z,13.15
2019-05-28T00:09:35.953Z,13.40
2019-05-28T00:12:12.336Z,12.98
2019-05-28T00:14:49.085Z,13.03
2019-05-28T00:17:26.564Z,13.28
2019-05-28T00:20:03.302Z,12.70
2019-05-28T00:22:40.385Z,13.95
2019-05-28T00:25:17.221Z,13.60
2019-05-28T00:27:53.691Z,13.70
2019-05-28T00:30:30.443Z,13.08
2019-05-28T00:33:07.013Z,12.40
2019-05-28T00:35:43.736Z,13.20
2019-05-28T00:38:20.648Z,12.60
2019-05-28T00:40:57.342Z,12.33
2019-05-28T00:43:34.127Z,11.97
2019-05-28T00:46:10.680Z,12.15
2019-05-28T00:48:47.476Z,12.37
2019-05-28T00:51:24.079Z,11.28
2019-05-28T00:54:01.266Z,12.45
2019-05-28T00:56:38.025Z,11.73
2019-05-28T00:59:15.153Z,11.78
2019-05-28T01:01:51.752Z,12.37
2019-05-28T01:04:28.375Z,11.22
2019-05-28T01:07:04.850Z,11.08
2019-05-28T01:09:41.423Z,11.73
2019-05-28T01:12:18.258Z,12.00
2019-05-28T01:14:54.904Z,10.85
2019-05-28T01:17:31.509Z,10.98
2019-05-28T01:20:09.092Z,10.88
2019-05-28T01:22:45.258Z,11.15
2019-05-28T01:25:22.682Z,10.43
2019-05-28T01:27:59.315Z,10.60
2019-05-28T01:30:51.787Z,10.82
2019-05-28T01:33:14.400Z,11.25
2019-05-28T01:35:50.986Z,11.12
2019-05-28T01:38:28.422Z,10.95
2019-05-28T01:41:04.916Z,10.85
2019-05-28T01:43:41.667Z,11.57
2019-05-28T01:46:18.173Z,10.90
2019-05-28T01:48:54.801Z,11.90
2019-05-28T01:51:31.407Z,12.53
2019-05-28T01:54:08.030Z,12.03
2019-05-28T01:56:44.399Z,12.43
2019-05-28T01:59:29.482Z,12.25
2019-05-28T02:02:06.372Z,12.30
2019-05-28T02:04:43.406Z,13.05
2019-05-28T02:07:20.002Z,14.50
2019-05-28T02:09:57.022Z,14.93
2019-05-28T02:12:34.394Z,12.73
2019-05-28T02:15:11.948Z,13.25
2019-05-28T02:17:49.412Z,13.53
2019-05-28T02:20:27.146Z,12.30
2019-05-28T02:23:03.402Z,14.07
2019-05-28T02:25:40.353Z,13.75
2019-05-28T02:28:16.988Z,13.08
2019-05-28T02:30:53.993Z,14.60
2019-05-28T02:33:33.526Z,14.28
2019-05-28T02:36:10.209Z,14.05
2019-05-28T02:38:46.942Z,15.50
2019-05-28T02:41:23.732Z,15.20
2019-05-28T02:44:00.479Z,14.70
2019-05-28T02:46:37.344Z,13.75
2019-05-28T02:49:13.946Z,13.70
2019-05-28T02:51:50.538Z,14.90
2019-05-28T02:54:27.380Z,13.98
2019-05-28T02:57:06.127Z,13.45
2019-05-28T02:59:44.029Z,14.68
2019-05-28T03:02:22.091Z,14.83
2019-05-28T03:05:01.398Z,14.90
2019-05-28T03:07:40.634Z,15.32
2019-05-28T03:10:18.563Z,14.90
2019-05-28T03:12:58.335Z,16.05
2019-05-28T03:15:37.462Z,16.25
2019-05-28T03:18:15.798Z,15.45
2019-05-28T03:20:54.938Z,14.53
2019-05-28T03:23:33.983Z,14.83
2019-05-28T03:26:10.656Z,15.15
2019-05-28T03:28:47.146Z,14.47
2019-05-28T03:31:23.888Z,15.18
2019-05-28T03:34:00.697Z,14.65
2019-05-28T03:36:37.742Z,14.95
2019-05-28T03:39:15.770Z,13.75
2019-05-28T03:41:52.512Z,14.40
2019-05-28T03:44:29.067Z,15.03
2019-05-28T03:47:05.854Z,14.98
2019-05-28T03:49:42.540Z,14.25
2019-05-28T03:52:18.873Z,14.03
2019-05-28T03:54:55.459Z,13.65
2019-05-28T03:57:32.009Z,14.55
2019-05-28T04:00:08.375Z,14.00
2019-05-28T04:02:44.872Z,14.10
2019-05-28T04:05:21.234Z,13.65
2019-05-28T04:07:57.684Z,13.60
2019-05-28T04:10:34.196Z,12.80
2019-05-28T04:13:11.157Z,13.90
2019-05-28T04:15:47.835Z,16.23
2019-05-28T04:18:24.783Z,14.38
2019-05-28T04:21:01.107Z,13.25
2019-05-28T04:23:41.225Z,13.72
2019-05-28T04:26:15.937Z,13.32
2019-05-28T04:28:52.417Z,15.00
2019-05-28T04:31:28.963Z,14.40
2019-05-28T04:34:05.621Z,13.32
2019-05-28T04:36:42.893Z,14.05
2019-05-28T04:39:19.589Z,13.98
2019-05-28T04:41:56.685Z,14.47
2019-05-28T04:44:33.138Z,14.50
2019-05-28T04:47:09.687Z,16.50
2019-05-28T04:49:46.556Z,15.48
2019-05-28T04:52:23.101Z,15.43
2019-05-28T04:54:59.824Z,15.25
2019-05-28T04:57:36.389Z,15.18
2019-05-28T05:00:13.089Z,14.28
2019-05-28T05:02:59.184Z,15.48
2019-05-28T05:05:27.801Z,14.45
2019-05-28T05:08:04.504Z,15.68
2019-05-28T05:10:41.299Z,14.55
2019-05-28T05:13:18.005Z,15.32
2019-05-28T05:15:54.445Z,14.07
2019-05-28T05:18:30.993Z,14.18
2019-05-28T05:21:07.591Z,15.05
2019-05-28T05:23:44.511Z,14.07
2019-05-28T05:26:21.066Z,13.93
2019-05-28T05:28:57.727Z,13.48
2019-05-28T05:31:34.475Z,13.72
2019-05-28T05:34:11.100Z,13.53
2019-05-28T05:36:47.573Z,11.97
2019-05-28T05:39:24.001Z,12.05
2019-05-28T05:42:00.411Z,11.90
2019-05-28T05:44:36.872Z,12.37
2019-05-28T05:47:13.866Z,11.53
2019-05-28T05:49:50.355Z,12.37
2019-05-28T05:52:27.209Z,11.25
2019-05-28T05:55:04.211Z,12.18
2019-05-28T05:57:40.621Z,12.47
2019-05-28T06:00:17.916Z,12.43
2019-05-28T06:02:54.899Z,12.37
2019-05-28T06:05:31.287Z,12.50
2019-05-28T06:08:07.799Z,11.80
2019-05-28T06:10:44.104Z,12.45
2019-05-28T06:13:21.728Z,12.25
2019-05-28T06:15:58.234Z,12.40
2019-05-28T06:18:34.809Z,11.45
2019-05-28T06:21:16.279Z,10.53
2019-05-28T06:23:49.593Z,10.63
2019-05-28T06:26:25.940Z,8.93
2019-05-28T06:29:02.553Z,8.18
2019-05-28T06:31:39.117Z,7.92
2019-05-28T06:34:15.767Z,7.85
2019-05-28T06:36:52.589Z,6.72
2019-05-28T06:39:29.163Z,6.53
2019-05-28T06:42:06.389Z,8.53
2019-05-28T06:44:43.170Z,9.58
2019-05-28T06:47:19.778Z,11.15
2019-05-28T06:49:57.371Z,11.08
2019-05-28T06:52:34.040Z,10.90
2019-05-28T06:55:11.097Z,11.33
2019-05-28T06:58:05.557Z,12.07
2019-05-28T07:00:42.385Z,11.75
2019-05-28T07:03:19.068Z,12.88
2019-05-28T07:06:06.235Z,13.00
2019-05-28T07:08:33.819Z,15.25
2019-05-28T07:11:10.720Z,15.28
2019-05-28T07:13:47.222Z,14.93
2019-05-28T07:16:23.967Z,12.82
2019-05-28T07:19:00.620Z,13.22
2019-05-28T07:21:37.465Z,14.15
2019-05-28T07:24:13.520Z,11.95
2019-05-28T07:26:50.004Z,9.70
2019-05-28T07:29:26.154Z,8.08
2019-05-28T07:32:02.961Z,7.28
2019-05-28T07:34:39.694Z,5.95
2019-05-28T07:37:16.314Z,5.90
2019-05-28T07:39:52.817Z,7.62
2019-05-28T07:42:32.717Z,8.15
2019-05-28T07:45:07.482Z,12.45
2019-05-28T07:47:45.299Z,13.15
2019-05-28T07:50:22.310Z,9.70
2019-05-28T07:53:00.195Z,8.70
2019-05-28T07:55:36.911Z,8.83
2019-05-28T07:58:14.004Z,8.75
2019-05-28T08:00:50.445Z,9.60
2019-05-28T08:03:26.951Z,9.73
2019-05-28T08:06:03.418Z,9.10
2019-05-28T08:08:41.110Z,9.58
2019-05-28T08:11:17.477Z,10.20
2019-05-28T08:13:54.174Z,7.90
2019-05-28T08:16:30.804Z,8.38
2019-05-28T08:19:08.915Z,8.70
2019-05-28T08:21:45.363Z,8.43
2019-05-28T08:24:23.418Z,8.15
2019-05-28T08:27:00.223Z,7.75
2019-05-28T08:29:37.194Z,7.67
2019-05-28T08:32:13.986Z,7.95
2019-05-28T08:35:04.136Z,7.75
2019-05-28T08:37:28.153Z,7.75
2019-05-28T08:40:05.397Z,8.30
2019-05-28T08:42:41.938Z,8.03
2019-05-28T08:45:18.680Z,7.83
2019-05-28T08:47:55.472Z,8.10
2019-05-28T08:50:34.892Z,7.90
2019-05-28T08:53:10.148Z,8.45
2019-05-28T08:55:46.751Z,8.50
2019-05-28T08:58:23.266Z,9.75
2019-05-28T09:00:59.584Z,9.78
2019-05-28T09:03:36.394Z,10.58
2019-05-28T09:06:12.939Z,11.38
2019-05-28T09:08:49.532Z,12.37
2019-05-28T09:11:26.527Z,10.48
2019-05-28T09:14:03.401Z,10.38
2019-05-28T09:16:39.756Z,10.35
2019-05-28T09:19:16.636Z,10.18
2019-05-28T09:21:53.053Z,10.35
2019-05-28T09:24:30.007Z,9.40
2019-05-28T09:27:06.767Z,10.23
2019-05-28T09:29:42.826Z,9.08
2019-05-28T09:32:18.831Z,9.30
2019-05-28T09:34:55.273Z,9.63
2019-05-28T09:37:31.757Z,8.93
2019-05-28T09:40:08.392Z,9.35
2019-05-28T09:42:45.133Z,8.58
2019-05-28T09:45:23.227Z,9.20
2019-05-28T09:47:59.707Z,9.33
2019-05-28T09:50:36.016Z,9.38
2019-05-28T09:53:12.413Z,9.03
2019-05-28T09:55:48.949Z,8.00
2019-05-28T09:58:25.457Z,9.03
2019-05-28T10:01:02.269Z,8.90
2019-05-28T10:03:39.118Z,9.18
2019-05-28T10:06:18.078Z,8.95
2019-05-28T10:08:54.386Z,9.70
2019-05-28T10:11:30.831Z,8.88
2019-05-28T10:14:07.660Z,9.03
2019-05-28T10:16:44.637Z,9.35
2019-05-28T10:19:21.431Z,8.90
2019-05-28T10:21:57.722Z,10.05
2019-05-28T10:24:34.361Z,9.28
2019-05-28T10:27:11.120Z,8.85
2019-05-28T10:29:47.432Z,8.53
2019-05-28T10:32:23.853Z,9.58
2019-05-28T10:35:03.701Z,10.45
2019-05-28T10:37:38.021Z,9.00
2019-05-28T10:40:14.774Z,5.90
2019-05-28T10:42:51.580Z,5.87
2019-05-28T10:45:28.810Z,4.90
2019-05-28T10:48:05.731Z,3.85
2019-05-28T10:50:42.815Z,4.05
2019-05-28T10:53:19.537Z,4.62
2019-05-28T10:55:55.911Z,4.12
2019-05-28T10:58:32.772Z,3.80
2019-05-28T11:01:09.545Z,4.40
2019-05-28T11:03:47.244Z,3.50
2019-05-28T11:06:24.018Z,2.75
2019-05-28T11:09:00.798Z,3.05
2019-05-28T11:11:37.592Z,3.08
2019-05-28T11:14:14.133Z,3.75
2019-05-28T11:16:50.991Z,3.37
2019-05-28T11:19:27.250Z,3.22
2019-05-28T11:22:04.281Z,3.72
2019-05-28T11:24:40.787Z,3.77
2019-05-28T11:27:17.248Z,3.20
2019-05-28T11:29:54.334Z,4.53
2019-05-28T11:32:30.789Z,3.70
2019-05-28T11:35:07.807Z,3.50
2019-05-28T11:37:44.411Z,4.20
2019-05-28T11:40:21.582Z,3.77
2019-05-28T11:42:57.750Z,3.42
2019-05-28T11:45:34.599Z,3.60
2019-05-28T11:48:10.740Z,3.52
2019-05-28T11:50:47.475Z,3.25
2019-05-28T11:53:23.156Z,3.42
2019-05-28T11:55:59.843Z,3.33
2019-05-28T11:58:36.192Z,3.58
2019-05-28T12:01:12.640Z,3.42
2019-05-28T12:03:49.212Z,3.47
2019-05-28T12:06:25.487Z,3.95
2019-05-28T12:09:01.897Z,3.58
2019-05-28T12:11:39.927Z,3.27
2019-05-28T12:14:16.656Z,3.70
2019-05-28T12:16:53.150Z,4.05
2019-05-28T12:19:29.544Z,3.45
2019-05-28T12:22:06.225Z,3.87
2019-05-28T12:24:42.301Z,3.60
2019-05-28T12:27:19.092Z,3.80
2019-05-28T12:29:55.767Z,3.90
2019-05-28T12:32:32.213Z,4.12
2019-05-28T12:35:26.305Z,3.83
2019-05-28T12:37:50.465Z,3.72
2019-05-28T12:40:25.923Z,3.92
2019-05-28T12:43:02.755Z,4.12
2019-05-28T12:45:39.230Z,4.30
2019-05-28T12:48:15.995Z,4.97
2019-05-28T12:50:52.580Z,5.12
2019-05-28T12:53:48.263Z,5.25
2019-05-28T12:56:13.337Z,5.50
2019-05-28T12:58:50.332Z,4.78
2019-05-28T13:01:27.312Z,4.00
2019-05-28T13:04:04.413Z,4.37
2019-05-28T13:06:40.332Z,4.20
2019-05-28T13:09:16.988Z,3.85
2019-05-28T13:11:53.700Z,4.37
2019-05-28T13:14:30.259Z,4.17
2019-05-28T13:17:06.957Z,4.12
2019-05-28T13:19:43.143Z,4.50
2019-05-28T13:22:19.448Z,5.08
2019-05-28T13:24:55.739Z,5.03
2019-05-28T13:27:32.355Z,5.95
2019-05-28T13:30:09.198Z,5.17
2019-05-28T13:32:46.128Z,5.83
2019-05-28T13:35:22.733Z,5.70
2019-05-28T13:37:58.986Z,5.47
2019-05-28T13:40:35.526Z,6.00
2019-05-28T13:43:11.302Z,4.35
2019-05-28T13:45:47.372Z,4.92
2019-05-28T13:48:23.928Z,5.03
2019-05-28T13:51:00.439Z,4.60
2019-05-28T13:53:37.666Z,4.10
2019-05-28T13:56:13.744Z,3.98
2019-05-28T13:58:50.359Z,3.80
2019-05-28T14:01:44.336Z,3.83
2019-05-28T14:04:21.128Z,3.90
2019-05-28T14:06:57.698Z,3.85
2019-05-28T14:09:33.919Z,4.08
2019-05-28T14:12:10.501Z,4.35
2019-05-28T14:14:47.101Z,4.58
2019-05-28T14:17:23.829Z,3.95
2019-05-28T14:20:00.557Z,4.00
2019-05-28T14:22:37.586Z,4.53
2019-05-28T14:25:14.533Z,4.62
2019-05-28T14:27:51.258Z,3.92
2019-05-28T14:30:28.399Z,4.20
2019-05-28T14:33:04.717Z,4.37
2019-05-28T14:35:41.182Z,4.85
2019-05-28T14:38:17.796Z,4.53
2019-05-28T14:40:54.500Z,4.90
2019-05-28T14:43:30.757Z,4.50
2019-05-28T14:46:08.246Z,4.35
2019-05-28T14:48:44.857Z,4.50
2019-05-28T14:51:21.575Z,5.00
2019-05-28T14:53:58.245Z,4.33
2019-05-28T14:56:34.623Z,4.58
2019-05-28T14:59:11.405Z,4.45
2019-05-28T15:01:48.096Z,4.45
2019-05-28T15:04:24.732Z,4.30
2019-05-28T15:07:01.490Z,4.40
2019-05-28T15:09:38.219Z,4.47
2019-05-28T15:12:14.882Z,5.10
2019-05-28T15:14:51.591Z,4.53
2019-05-28T15:17:28.556Z,4.95
2019-05-28T15:20:05.390Z,4.65
2019-05-28T15:22:42.023Z,4.33
2019-05-28T15:25:18.636Z,4.97
2019-05-28T15:27:55.418Z,4.72
2019-05-28T15:30:32.307Z,4.75
2019-05-28T15:33:09.081Z,5.20
2019-05-28T15:35:46.007Z,4.90
2019-05-28T15:38:22.780Z,4.83
2019-05-28T15:40:59.184Z,5.40
2019-05-28T15:43:35.651Z,4.20
2019-05-28T15:46:12.124Z,4.60
2019-05-28T15:48:48.419Z,4.37
2019-05-28T15:51:25.062Z,4.70
2019-05-28T15:54:01.615Z,4.83
2019-05-28T15:56:38.286Z,4.60
2019-05-28T15:59:14.489Z,4.53
2019-05-28T16:01:51.219Z,5.40
2019-05-28T16:04:27.675Z,5.10
2019-05-28T16:07:04.035Z,4.65
2019-05-28T16:09:55.130Z,5.45
2019-05-28T16:12:18.127Z,4.67
2019-05-28T16:14:54.966Z,4.90
2019-05-28T16:17:31.609Z,5.05
2019-05-28T16:20:08.387Z,4.53
2019-05-28T16:22:44.850Z,5.12
2019-05-28T16:25:22.061Z,5.42
2019-05-28T16:27:58.170Z,5.33
2019-05-28T16:30:34.968Z,4.85
2019-05-28T16:33:11.508Z,5.30
2019-05-28T16:35:48.503Z,5.42
2019-05-28T16:38:24.984Z,5.47
2019-05-28T16:41:02.886Z,4.65
2019-05-28T16:43:39.439Z,5.30
2019-05-28T16:46:16.055Z,5.30
2019-05-28T16:48:52.705Z,5.65
2019-05-28T16:51:29.010Z,5.45
2019-05-28T16:54:18.570Z,5.70
2019-05-28T16:56:43.601Z,5.92
2019-05-28T16:59:19.748Z,5.92
2019-05-28T17:01:56.137Z,6.45
2019-05-28T17:04:32.677Z,5.87
2019-05-28T17:07:09.130Z,5.80
2019-05-28T17:09:45.884Z,5.58
2019-05-28T17:12:22.472Z,5.35
2019-05-28T17:14:58.990Z,5.58
2019-05-28T17:17:36.358Z,6.03
2019-05-28T17:20:13.132Z,5.28
2019-05-28T17:22:49.926Z,5.72
2019-05-28T17:25:26.554Z,5.83
2019-05-28T17:28:03.458Z,6.28
2019-05-28T17:30:40.001Z,7.58
2019-05-28T17:33:16.428Z,6.47
2019-05-28T17:35:53.250Z,6.10
2019-05-28T17:38:30.462Z,6.47
2019-05-28T17:41:06.785Z,6.40
2019-05-28T17:43:44.272Z,6.58
2019-05-28T17:46:20.431Z,6.30
2019-05-28T17:48:56.983Z,6.20
2019-05-28T17:51:33.679Z,6.00
2019-05-28T17:54:10.334Z,6.58
2019-05-28T17:56:46.974Z,6.37
2019-05-28T17:59:23.597Z,6.90
2019-05-28T18:02:01.688Z,7.30
2019-05-28T18:04:38.063Z,6.15
2019-05-28T18:07:14.661Z,7.00
2019-05-28T18:09:51.257Z,7.22
2019-05-28T18:12:27.678Z,6.40
2019-05-28T18:15:04.062Z,6.90
2019-05-28T18:17:41.827Z,6.22
2019-05-28T18:20:19.256Z,5.87
2019-05-28T18:22:55.927Z,6.90
2019-05-28T18:25:32.858Z,6.58
2019-05-28T18:28:09.391Z,7.70
2019-05-28T18:30:46.321Z,6.70
2019-05-28T18:33:23.660Z,7.20
2019-05-28T18:36:00.057Z,7.05
2019-05-28T18:38:43.584Z,6.92
2019-05-28T18:41:21.561Z,7.70
2019-05-28T18:43:52.594Z,7.87
2019-05-28T18:46:32.644Z,7.85
2019-05-28T18:49:09.489Z,7.45
2019-05-28T18:51:45.949Z,7.28
2019-05-28T18:54:22.699Z,7.47
2019-05-28T18:56:58.935Z,6.97
2019-05-28T18:59:35.552Z,6.45
2019-05-28T19:02:12.238Z,6.53
2019-05-28T19:04:49.115Z,6.28
2019-05-28T19:07:26.755Z,6.12
2019-05-28T19:10:03.550Z,6.00
2019-05-28T19:12:39.918Z,6.28
2019-05-28T19:15:17.083Z,6.72
2019-05-28T19:17:53.613Z,6.70
2019-05-28T19:20:30.498Z,6.30
2019-05-28T19:23:06.826Z,6.87
2019-05-28T19:25:43.767Z,7.65
2019-05-28T19:28:20.337Z,6.60
2019-05-28T19:30:56.965Z,6.45
2019-05-28T19:33:33.835Z,6.70
2019-05-28T19:36:11.234Z,6.42
2019-05-28T19:38:47.927Z,6.15
2019-05-28T19:41:24.490Z,6.50
2019-05-28T19:44:01.367Z,7.08
2019-05-28T19:46:38.027Z,7.05
2019-05-28T19:49:15.519Z,6.35
2019-05-28T19:51:52.600Z,7.10
2019-05-28T19:54:29.617Z,7.40
2019-05-28T19:57:06.798Z,6.83
2019-05-28T19:59:43.147Z,7.00
2019-05-28T20:02:19.791Z,7.65
2019-05-28T20:04:56.424Z,7.87
2019-05-28T20:07:33.117Z,7.20
2019-05-28T20:10:09.728Z,7.53
2019-05-28T20:12:46.446Z,7.65
2019-05-28T20:15:24.542Z,7.20
2019-05-28T20:18:01.389Z,7.30
2019-05-28T20:20:38.081Z,7.67
2019-05-28T20:23:14.463Z,7.28
2019-05-28T20:25:52.634Z,7.58
2019-05-28T20:28:29.493Z,7.08
2019-05-28T20:31:06.035Z,7.05
2019-05-28T20:33:42.612Z,7.10
2019-05-28T20:36:19.441Z,7.72
2019-05-28T20:38:55.979Z,7.65
2019-05-28T20:41:32.189Z,7.80
2019-05-28T20:44:08.688Z,7.60
2019-05-28T20:46:45.373Z,7.33
2019-05-28T20:49:21.900Z,7.65
2019-05-28T20:51:58.730Z,8.10
2019-05-28T20:54:36.458Z,8.05
2019-05-28T20:57:12.857Z,7.10
2019-05-28T20:59:49.521Z,7.20
2019-05-28T21:02:26.538Z,8.25
2019-05-28T21:05:02.833Z,8.00
2019-05-28T21:07:39.628Z,7.87
2019-05-28T21:10:16.071Z,7.50
2019-05-28T21:12:52.965Z,8.33
2019-05-28T21:15:29.880Z,7.60
2019-05-28T21:18:06.356Z,7.90
2019-05-28T21:20:42.934Z,8.10
2019-05-28T21:23:19.603Z,8.05
2019-05-28T21:25:56.264Z,8.58
2019-05-28T21:28:32.593Z,8.55
2019-05-28T21:31:09.908Z,7.78
2019-05-28T21:33:46.432Z,8.68
2019-05-28T21:36:22.975Z,8.88
2019-05-28T21:38:59.703Z,8.23
2019-05-28T21:41:37.734Z,8.75
2019-05-28T21:44:14.725Z,8.55
2019-05-28T21:46:52.247Z,8.70
2019-05-28T21:49:28.969Z,9.33
2019-05-28T21:52:05.432Z,8.30
2019-05-28T21:54:42.016Z,8.50
2019-05-28T21:57:18.940Z,8.85
2019-05-28T21:59:55.720Z,8.83
2019-05-28T22:02:32.393Z,9.33
2019-05-28T22:05:09.697Z,8.50
2019-05-28T22:07:48.293Z,8.70
2019-05-28T22:10:25.179Z,9.05
2019-05-28T22:13:16.678Z,9.50
2019-05-28T22:15:42.841Z,8.95
2019-05-28T22:18:19.412Z,9.53
2019-05-28T22:20:56.700Z,9.90
2019-05-28T22:23:33.456Z,9.88
2019-05-28T22:26:10.313Z,9.93
2019-05-28T22:28:46.575Z,9.58
2019-05-28T22:31:23.012Z,9.38
2019-05-28T22:33:59.472Z,10.68
2019-05-28T22:36:35.817Z,10.00
2019-05-28T22:39:12.879Z,10.28
2019-05-28T22:41:49.542Z,9.55
2019-05-28T22:44:26.564Z,9.70
2019-05-28T22:47:03.330Z,9.28
2019-05-28T22:49:40.406Z,8.93
2019-05-28T22:52:18.027Z,9.73
2019-05-28T22:54:55.687Z,9.78
2019-05-28T22:57:32.028Z,9.35
2019-05-28T23:00:09.684Z,10.08
2019-05-28T23:02:46.228Z,10.05
2019-05-28T23:05:22.309Z,10.53
2019-05-28T23:07:59.332Z,10.72
2019-05-28T23:10:35.979Z,11.38
2019-05-28T23:13:12.451Z,10.93
2019-05-28T23:15:49.115Z,11.40
2019-05-28T23:18:25.691Z,11.05
2019-05-28T23:21:02.615Z,11.20
2019-05-28T23:23:39.282Z,12.00
2019-05-28T23:26:15.453Z,11.80
2019-05-28T23:28:51.912Z,13.45
2019-05-28T23:31:28.650Z,13.20
2019-05-28T23:34:06.337Z,13.75
2019-05-28T23:36:42.900Z,14.25
2019-05-28T23:39:19.510Z,14.60
2019-05-28T23:41:55.956Z,13.83
2019-05-28T23:44:32.558Z,15.75
2019-05-28T23:47:10.123Z,14.83
2019-05-28T23:49:47.134Z,15.72
2019-05-28T23:52:24.839Z,15.55
2019-05-28T23:55:01.854Z,15.63
2019-05-28T23:57:38.586Z,16.23
